createdAt,value
2017-12-03T00:01:57.523Z,15.87
2017-12-03T00:04:25.566Z,17.33
2017-12-03T00:06:54.597Z,16.27
2017-12-03T00:09:22.691Z,15.67
2017-12-03T00:11:50.745Z,18.47
2017-12-03T00:14:19.678Z,18.17
2017-12-03T00:16:47.774Z,16.83
2017-12-03T00:19:15.825Z,16.30
2017-12-03T00:21:43.866Z,14.67
2017-12-03T00:24:12.002Z,14.87
2017-12-03T00:26:40.051Z,17.37
2017-12-03T00:29:09.394Z,15.50
2017-12-03T00:31:37.486Z,15.53
2017-12-03T00:34:05.547Z,17.93
2017-12-03T00:36:34.394Z,17.03
2017-12-03T00:39:02.493Z,16.10
2017-12-03T00:41:30.544Z,14.13
2017-12-03T00:43:58.635Z,17.13
2017-12-03T00:46:26.728Z,15.50
2017-12-03T00:48:54.823Z,15.82
2017-12-03T00:51:22.995Z,15.87
2017-12-03T00:53:51.047Z,16.03
2017-12-03T00:56:19.138Z,17.23
2017-12-03T00:58:47.189Z,16.60
2017-12-03T01:01:15.234Z,15.80
2017-12-03T01:03:43.516Z,15.03
2017-12-03T01:06:11.570Z,15.67
2017-12-03T01:08:39.614Z,17.20
2017-12-03T01:11:07.730Z,15.55
2017-12-03T01:13:35.788Z,15.25
2017-12-03T01:16:03.835Z,16.73
2017-12-03T01:18:31.927Z,15.10
2017-12-03T01:20:59.974Z,15.40
2017-12-03T01:23:28.027Z,16.83
2017-12-03T01:25:56.130Z,17.20
2017-12-03T01:28:24.191Z,17.10
2017-12-03T01:30:52.330Z,15.20
2017-12-03T01:33:20.422Z,16.40
2017-12-03T01:35:48.470Z,17.40
2017-12-03T01:38:16.562Z,14.90
2017-12-03T01:40:44.624Z,15.37
2017-12-03T01:43:13.491Z,15.90
2017-12-03T01:45:41.555Z,16.37
2017-12-03T01:48:09.671Z,16.50
2017-12-03T01:50:37.719Z,16.40
2017-12-03T01:53:05.767Z,17.70
2017-12-03T01:55:34.625Z,15.53
2017-12-03T01:58:02.683Z,17.33
2017-12-03T02:00:30.770Z,16.07
2017-12-03T02:02:58.862Z,16.40
2017-12-03T02:05:26.911Z,16.00
2017-12-03T02:07:55.064Z,15.50
2017-12-03T02:10:23.115Z,14.80
2017-12-03T02:12:51.163Z,16.60
2017-12-03T02:15:20.027Z,17.07
2017-12-03T02:17:48.131Z,15.93
2017-12-03T02:20:16.990Z,14.65
2017-12-03T02:22:45.077Z,14.77
2017-12-03T02:25:13.354Z,17.77
2017-12-03T02:27:41.419Z,15.17
2017-12-03T02:30:09.470Z,17.98
2017-12-03T02:32:38.331Z,15.82
2017-12-03T02:35:06.435Z,15.90
2017-12-03T02:37:34.487Z,17.27
2017-12-03T02:40:02.615Z,14.60
2017-12-03T02:42:30.670Z,14.23
2017-12-03T02:44:58.718Z,13.90
2017-12-03T02:47:26.824Z,14.52
2017-12-03T02:49:54.885Z,14.93
2017-12-03T02:52:23.700Z,14.13
2017-12-03T02:54:51.795Z,14.35
2017-12-03T02:57:19.851Z,14.27
2017-12-03T02:59:47.955Z,16.45
2017-12-03T03:02:16.011Z,13.52
2017-12-03T03:04:44.878Z,13.65
2017-12-03T03:07:12.975Z,15.60
2017-12-03T03:09:41.072Z,14.90
2017-12-03T03:12:09.898Z,15.98
2017-12-03T03:14:37.996Z,15.77
2017-12-03T03:17:06.050Z,15.50
2017-12-03T03:19:34.920Z,14.70
2017-12-03T03:22:03.079Z,15.10
2017-12-03T03:24:31.141Z,15.15
2017-12-03T03:26:59.226Z,16.80
2017-12-03T03:29:27.279Z,13.70
2017-12-03T03:31:56.107Z,14.57
2017-12-03T03:34:24.214Z,14.13
2017-12-03T03:36:52.266Z,12.27
2017-12-03T03:39:21.082Z,14.80
2017-12-03T03:41:49.178Z,14.23
2017-12-03T03:44:17.233Z,14.02
2017-12-03T03:46:46.099Z,16.25
2017-12-03T03:49:14.155Z,14.80
2017-12-03T03:51:42.246Z,15.20
2017-12-03T03:54:10.298Z,16.10
2017-12-03T03:56:38.423Z,15.02
2017-12-03T03:59:06.481Z,17.02
2017-12-03T04:01:34.530Z,14.55
2017-12-03T04:04:03.395Z,16.27
2017-12-03T04:06:31.451Z,15.52
2017-12-03T04:08:59.554Z,15.27
2017-12-03T04:11:27.646Z,13.23
2017-12-03T04:13:55.707Z,14.20
2017-12-03T04:16:23.820Z,18.02
2017-12-03T04:18:51.866Z,15.45
2017-12-03T04:21:19.922Z,15.77
2017-12-03T04:23:50.104Z,17.50
2017-12-03T04:26:18.163Z,16.77
2017-12-03T04:28:46.211Z,19.45
2017-12-03T04:31:15.447Z,16.93
2017-12-03T04:33:43.498Z,18.48
2017-12-03T04:36:11.558Z,19.20
2017-12-03T04:38:39.674Z,19.35
2017-12-03T04:41:08.494Z,21.15
2017-12-03T04:43:37.334Z,17.13
2017-12-03T04:46:05.440Z,20.77
2017-12-03T04:48:33.549Z,20.83
2017-12-03T04:51:02.406Z,20.10
2017-12-03T04:53:30.510Z,24.25
2017-12-03T04:55:58.606Z,21.25
2017-12-03T04:58:26.663Z,19.92
2017-12-03T05:00:54.724Z,21.73
2017-12-03T05:03:22.838Z,19.85
2017-12-03T05:05:50.885Z,21.98
2017-12-03T05:08:18.948Z,20.60
2017-12-03T05:10:47.827Z,21.98
2017-12-03T05:13:15.883Z,22.17
2017-12-03T05:18:17.301Z,21.37
2017-12-03T05:20:45.351Z,23.07
2017-12-03T05:23:13.411Z,21.20
2017-12-03T05:25:41.511Z,24.87
2017-12-03T05:28:09.611Z,20.20
2017-12-03T05:30:37.714Z,22.52
2017-12-03T05:33:05.847Z,22.20
2017-12-03T05:35:33.999Z,25.52
2017-12-03T05:38:03.558Z,22.03
2017-12-03T05:40:31.662Z,21.40
2017-12-03T05:42:59.717Z,22.58
2017-12-03T05:45:27.774Z,24.05
2017-12-03T05:47:55.871Z,22.17
2017-12-03T05:50:24.694Z,20.58
2017-12-03T05:52:52.793Z,22.25
2017-12-03T05:55:20.847Z,21.73
2017-12-03T05:57:49.701Z,22.95
2017-12-03T06:00:17.807Z,20.67
2017-12-03T06:02:45.867Z,21.60
2017-12-03T06:05:13.924Z,19.95
2017-12-03T06:07:42.031Z,23.62
2017-12-03T06:10:10.086Z,21.00
2017-12-03T06:12:38.134Z,23.45
2017-12-03T06:15:06.259Z,24.60
2017-12-03T06:17:34.326Z,24.92
2017-12-03T06:20:03.148Z,26.70
2017-12-03T06:22:31.251Z,24.45
2017-12-03T06:24:59.306Z,27.40
2017-12-03T06:27:27.823Z,23.55
2017-12-03T06:29:55.870Z,24.87
2017-12-03T06:32:24.695Z,25.52
2017-12-03T06:34:52.794Z,25.20
2017-12-03T06:37:20.855Z,24.85
2017-12-03T06:39:48.915Z,24.40
2017-12-03T06:42:17.782Z,25.75
2017-12-03T06:44:45.826Z,27.47
2017-12-03T06:47:13.881Z,29.87
2017-12-03T06:49:42.742Z,28.12
2017-12-03T06:52:10.800Z,24.90
2017-12-03T06:54:38.890Z,24.35
2017-12-03T06:57:06.991Z,26.60
2017-12-03T06:59:35.066Z,24.60
2017-12-03T07:02:03.171Z,25.25
2017-12-03T07:04:31.222Z,25.52
2017-12-03T07:06:59.318Z,26.58
2017-12-03T07:09:27.375Z,28.38
2017-12-03T07:11:55.427Z,27.48
2017-12-03T07:14:23.531Z,25.45
2017-12-03T07:16:52.347Z,21.97
2017-12-03T07:19:20.399Z,24.33
2017-12-03T07:21:48.494Z,25.52
2017-12-03T07:24:17.318Z,23.87
2017-12-03T07:26:45.366Z,22.62
2017-12-03T07:29:13.474Z,22.10
2017-12-03T07:31:42.295Z,23.40
2017-12-03T07:34:10.352Z,23.75
2017-12-03T07:36:39.241Z,25.00
2017-12-03T07:39:07.282Z,21.17
2017-12-03T07:41:35.361Z,23.90
2017-12-03T07:44:03.484Z,20.92
2017-12-03T07:46:31.586Z,22.62
2017-12-03T07:48:59.679Z,20.70
2017-12-03T07:51:29.462Z,20.35
2017-12-03T07:53:57.588Z,21.00
2017-12-03T07:56:26.458Z,21.35
2017-12-03T07:58:54.506Z,21.52
2017-12-03T08:01:22.676Z,20.90
2017-12-03T08:03:50.766Z,21.95
2017-12-03T08:06:18.820Z,21.05
2017-12-03T08:08:47.648Z,21.08
2017-12-03T08:11:15.758Z,21.30
2017-12-03T08:13:43.854Z,21.20
2017-12-03T08:16:11.968Z,18.77
2017-12-03T08:18:40.034Z,20.83
2017-12-03T08:21:08.140Z,19.55
2017-12-03T08:23:37.012Z,19.17
2017-12-03T08:26:05.066Z,22.83
2017-12-03T08:28:33.174Z,16.30
2017-12-03T08:31:01.291Z,20.35
2017-12-03T08:33:30.115Z,19.73
2017-12-03T08:35:58.334Z,17.12
2017-12-03T08:38:26.396Z,17.90
2017-12-03T08:40:54.507Z,17.98
2017-12-03T08:43:22.718Z,17.33
2017-12-03T08:45:50.770Z,16.58
2017-12-03T08:48:18.828Z,16.10
2017-12-03T08:50:46.923Z,17.23
2017-12-03T08:53:15.027Z,18.02
2017-12-03T08:55:43.087Z,16.92
2017-12-03T08:58:11.186Z,14.60
2017-12-03T09:00:39.245Z,16.48
2017-12-03T09:03:08.106Z,16.57
2017-12-03T09:05:36.210Z,16.45
2017-12-03T09:08:04.262Z,14.77
2017-12-03T09:10:32.319Z,14.63
2017-12-03T09:13:00.424Z,15.27
2017-12-03T09:15:28.482Z,15.47
2017-12-03T09:17:56.699Z,13.10
2017-12-03T09:20:24.742Z,15.90
2017-12-03T09:22:52.794Z,12.13
2017-12-03T09:25:20.891Z,13.70
2017-12-03T09:27:49.706Z,14.60
2017-12-03T09:30:18.655Z,14.73
2017-12-03T09:32:46.702Z,15.60
2017-12-03T09:35:15.505Z,15.50
2017-12-03T09:37:43.622Z,15.07
2017-12-03T09:40:11.670Z,12.23
2017-12-03T09:42:39.727Z,14.00
2017-12-03T09:45:07.818Z,15.33
2017-12-03T09:47:36.643Z,12.68
2017-12-03T09:50:04.784Z,11.37
2017-12-03T09:52:32.807Z,12.17
2017-12-03T09:55:00.907Z,10.87
2017-12-03T09:57:28.951Z,10.50
2017-12-03T09:59:56.998Z,10.80
2017-12-03T10:02:25.118Z,10.70
2017-12-03T10:04:53.167Z,10.17
2017-12-03T10:07:21.269Z,11.03
2017-12-03T10:09:49.320Z,11.27
2017-12-03T10:12:17.493Z,10.20
2017-12-03T10:14:45.587Z,10.20
2017-12-03T10:17:13.670Z,10.63
2017-12-03T10:19:41.755Z,9.50
2017-12-03T10:22:09.794Z,8.90
2017-12-03T10:24:38.610Z,10.90
2017-12-03T10:27:07.470Z,10.33
2017-12-03T10:29:35.520Z,10.13
2017-12-03T10:32:03.618Z,10.00
2017-12-03T10:34:31.667Z,8.40
2017-12-03T10:37:00.706Z,10.40
2017-12-03T10:39:29.570Z,8.87
2017-12-03T10:41:58.379Z,8.90
2017-12-03T10:44:26.467Z,7.23
2017-12-03T10:46:55.317Z,8.07
2017-12-03T10:49:24.364Z,8.10
2017-12-03T10:51:53.183Z,8.20
2017-12-03T10:54:21.271Z,9.53
2017-12-03T10:56:49.322Z,8.98
2017-12-03T10:59:17.440Z,7.60
2017-12-03T11:01:45.500Z,8.70
2017-12-03T11:04:14.318Z,6.80
2017-12-03T11:06:42.416Z,8.57
2017-12-03T11:09:10.595Z,9.20
2017-12-03T11:11:38.646Z,7.60
2017-12-03T11:14:07.459Z,7.53
2017-12-03T11:16:36.423Z,8.73
2017-12-03T11:19:04.463Z,8.07
2017-12-03T11:21:32.512Z,8.17
2017-12-03T11:24:00.726Z,7.30
2017-12-03T11:26:29.538Z,6.87
2017-12-03T11:28:58.490Z,8.00
2017-12-03T11:31:26.768Z,8.27
2017-12-03T11:33:54.803Z,7.07
2017-12-03T11:36:22.860Z,6.77
2017-12-03T11:38:50.976Z,6.90
2017-12-03T11:41:19.784Z,6.90
2017-12-03T11:43:47.836Z,7.03
2017-12-03T11:46:15.939Z,6.37
2017-12-03T11:48:44.743Z,7.27
2017-12-03T11:51:13.560Z,7.97
2017-12-03T11:53:41.650Z,6.73
2017-12-03T11:56:10.774Z,7.40
2017-12-03T11:58:38.815Z,6.13
2017-12-03T12:01:07.624Z,5.97
2017-12-03T12:03:36.476Z,4.90
2017-12-03T12:06:04.530Z,5.43
2017-12-03T12:08:32.719Z,6.40
2017-12-03T12:11:00.760Z,5.47
2017-12-03T12:13:28.858Z,5.63
2017-12-03T12:15:57.664Z,5.27
2017-12-03T12:18:25.795Z,5.07
2017-12-03T12:20:53.910Z,5.53
2017-12-03T12:23:21.948Z,4.67
2017-12-03T12:25:49.995Z,5.63
2017-12-03T12:28:19.975Z,6.40
2017-12-03T12:30:48.012Z,6.23
2017-12-03T12:33:16.819Z,3.97
2017-12-03T12:35:44.906Z,5.53
2017-12-03T12:38:13.007Z,6.77
2017-12-03T12:40:41.050Z,5.50
2017-12-03T12:43:09.854Z,5.50
2017-12-03T12:45:38.706Z,5.43
2017-12-03T12:48:06.986Z,6.37
2017-12-03T12:50:36.922Z,5.47
2017-12-03T12:53:05.206Z,6.70
2017-12-03T12:55:33.494Z,5.97
2017-12-03T12:58:01.828Z,6.50
2017-12-03T13:00:30.184Z,7.40
2017-12-03T13:02:58.666Z,7.00
2017-12-03T13:05:26.958Z,7.23
2017-12-03T13:07:55.246Z,6.90
2017-12-03T13:10:23.580Z,6.27
2017-12-03T13:12:51.907Z,6.33
2017-12-03T13:15:20.252Z,5.63
2017-12-03T13:17:49.299Z,7.50
2017-12-03T13:20:17.583Z,6.67
2017-12-03T13:22:45.909Z,6.17
2017-12-03T13:25:14.221Z,6.50
2017-12-03T13:27:43.302Z,6.27
2017-12-03T13:30:11.590Z,6.57
2017-12-03T13:32:40.838Z,5.30
2017-12-03T13:35:09.118Z,6.47
2017-12-03T13:37:38.272Z,6.50
2017-12-03T13:40:06.559Z,6.90
2017-12-03T13:42:34.838Z,5.60
2017-12-03T13:45:03.175Z,6.00
2017-12-03T13:47:31.455Z,6.10
2017-12-03T13:49:59.738Z,6.67
2017-12-03T13:52:28.223Z,5.93
2017-12-03T13:54:57.471Z,5.97
2017-12-03T13:57:26.510Z,5.30
2017-12-03T13:59:54.830Z,5.50
2017-12-03T14:02:23.430Z,6.67
2017-12-03T14:04:51.722Z,6.53
2017-12-03T14:07:20.035Z,5.90
2017-12-03T14:09:48.355Z,6.40
2017-12-03T14:12:16.643Z,5.83
2017-12-03T14:14:45.084Z,5.23
2017-12-03T14:17:13.367Z,5.60
2017-12-03T14:19:41.647Z,5.43
2017-12-03T14:22:09.981Z,7.60
2017-12-03T14:24:39.048Z,7.80
2017-12-03T14:27:07.336Z,7.43
2017-12-03T14:29:35.659Z,7.43
2017-12-03T14:32:04.719Z,12.23
2017-12-03T14:34:33.061Z,8.50
2017-12-03T14:37:02.113Z,8.63
2017-12-03T14:39:30.479Z,9.40
2017-12-03T14:41:58.762Z,8.77
2017-12-03T14:44:27.070Z,6.30
2017-12-03T14:46:55.411Z,10.07
2017-12-03T14:49:23.694Z,8.20
2017-12-03T14:51:51.995Z,7.70
2017-12-03T14:54:20.322Z,8.43
2017-12-03T14:56:48.670Z,8.13
2017-12-03T14:59:17.010Z,8.63
2017-12-03T15:01:46.030Z,7.17
2017-12-03T15:04:14.363Z,8.40
2017-12-03T15:06:43.467Z,7.93
2017-12-03T15:09:12.526Z,7.93
2017-12-03T15:11:40.903Z,7.35
2017-12-03T15:14:09.203Z,7.80
2017-12-03T15:16:37.582Z,6.80
2017-12-03T15:19:05.915Z,8.00
2017-12-03T15:21:34.212Z,7.32
2017-12-03T15:24:02.584Z,8.00
2017-12-03T15:26:30.880Z,6.47
2017-12-03T15:28:59.217Z,7.10
2017-12-03T15:31:28.492Z,7.90
2017-12-03T15:33:56.786Z,6.83
2017-12-03T15:36:25.837Z,6.87
2017-12-03T15:38:54.163Z,7.67
2017-12-03T15:41:22.451Z,7.50
2017-12-03T15:43:50.867Z,7.47
2017-12-03T15:46:19.150Z,6.70
2017-12-03T15:48:47.421Z,7.37
2017-12-03T15:51:15.784Z,7.30
2017-12-03T15:53:44.106Z,7.72
2017-12-03T15:56:13.394Z,6.73
2017-12-03T15:58:41.767Z,10.40
2017-12-03T16:01:10.123Z,8.88
2017-12-03T16:03:38.442Z,8.70
2017-12-03T16:06:06.810Z,7.83
2017-12-03T16:08:35.102Z,8.40
2017-12-03T16:11:03.374Z,6.23
2017-12-03T16:13:31.772Z,7.57
2017-12-03T16:16:00.051Z,8.07
2017-12-03T16:18:28.368Z,8.53
2017-12-03T16:20:57.422Z,8.07
2017-12-03T16:23:25.843Z,8.37
2017-12-03T16:25:54.135Z,7.50
2017-12-03T16:28:22.428Z,8.47
2017-12-03T16:30:50.786Z,7.40
2017-12-03T16:33:19.073Z,7.07
2017-12-03T16:35:47.368Z,7.17
2017-12-03T16:38:15.699Z,8.30
2017-12-03T16:40:44.768Z,8.37
2017-12-03T16:43:13.102Z,8.23
2017-12-03T16:45:42.200Z,8.10
2017-12-03T16:48:10.483Z,8.20
2017-12-03T16:50:38.840Z,10.20
2017-12-03T16:53:07.130Z,7.80
2017-12-03T16:55:35.422Z,8.38
2017-12-03T16:58:04.548Z,7.23
2017-12-03T17:00:32.840Z,9.10
2017-12-03T17:03:01.127Z,7.68
2017-12-03T17:05:29.542Z,8.00
2017-12-03T17:07:57.880Z,8.47
2017-12-03T17:10:26.162Z,9.57
2017-12-03T17:12:54.503Z,9.65
2017-12-03T17:15:24.391Z,9.67
2017-12-03T17:17:52.683Z,9.20
2017-12-03T17:20:21.018Z,8.30
2017-12-03T17:22:49.351Z,8.80
2017-12-03T17:25:18.379Z,9.50
2017-12-03T17:27:46.710Z,9.13
2017-12-03T17:30:15.766Z,9.10
2017-12-03T17:32:44.054Z,9.60
2017-12-03T17:35:12.395Z,10.65
2017-12-03T17:37:41.506Z,9.93
2017-12-03T17:40:09.794Z,9.20
2017-12-03T17:42:38.855Z,9.60
2017-12-03T17:45:07.282Z,9.67
2017-12-03T17:47:35.587Z,10.10
2017-12-03T17:50:04.695Z,9.60
2017-12-03T17:52:33.992Z,9.90
2017-12-03T17:55:03.287Z,9.75
2017-12-03T17:57:31.580Z,8.80
2017-12-03T17:59:59.936Z,9.35
2017-12-03T18:02:28.434Z,11.20
2017-12-03T18:04:56.759Z,10.77
2017-12-03T18:07:25.110Z,10.37
2017-12-03T18:09:53.463Z,9.47
2017-12-03T18:12:22.518Z,9.00
2017-12-03T18:14:50.807Z,9.77
2017-12-03T18:17:19.322Z,11.05
2017-12-03T18:19:47.607Z,9.70
2017-12-03T18:22:15.894Z,10.23
2017-12-03T18:24:44.255Z,10.97
2017-12-03T18:27:12.555Z,11.30
2017-12-03T18:29:40.842Z,10.97
2017-12-03T18:32:09.580Z,10.25
2017-12-03T18:34:37.887Z,12.93
2017-12-03T18:37:06.958Z,11.60
2017-12-03T18:39:35.334Z,11.60
2017-12-03T18:42:03.648Z,11.40
2017-12-03T18:44:31.948Z,11.60
2017-12-03T18:47:01.571Z,10.10
2017-12-03T18:49:29.945Z,12.33
2017-12-03T18:51:58.252Z,12.35
2017-12-03T18:54:26.558Z,13.40
2017-12-03T18:56:55.668Z,11.77
2017-12-03T18:59:24.736Z,12.07
2017-12-03T19:01:53.095Z,10.60
2017-12-03T19:04:21.389Z,11.40
2017-12-03T19:06:49.739Z,11.20
2017-12-03T19:09:18.831Z,11.20
2017-12-03T19:11:47.225Z,13.80
2017-12-03T19:14:15.513Z,13.15
2017-12-03T19:16:44.202Z,12.68
2017-12-03T19:19:12.503Z,12.50
2017-12-03T19:21:40.886Z,12.07
2017-12-03T19:24:09.206Z,14.00
2017-12-03T19:26:38.310Z,11.83
2017-12-03T19:29:07.369Z,14.15
2017-12-03T19:31:36.627Z,14.30
2017-12-03T19:34:06.127Z,14.27
2017-12-03T19:36:34.424Z,12.43
2017-12-03T19:39:03.486Z,13.43
2017-12-03T19:41:31.822Z,13.15
2017-12-03T19:44:01.982Z,14.50
2017-12-03T19:46:31.620Z,12.40
2017-12-03T19:49:01.606Z,14.48
2017-12-03T19:51:30.995Z,14.60
2017-12-03T19:53:59.284Z,14.57
2017-12-03T19:56:27.897Z,13.07
2017-12-03T19:58:56.278Z,14.70
2017-12-03T20:01:24.579Z,14.30
2017-12-03T20:03:52.919Z,15.33
2017-12-03T20:06:22.134Z,13.53
2017-12-03T20:08:50.466Z,14.00
2017-12-03T20:11:18.854Z,14.97
2017-12-03T20:13:47.155Z,14.77
2017-12-03T20:16:16.210Z,14.90
2017-12-03T20:18:44.570Z,13.40
2017-12-03T20:21:12.869Z,14.80
2017-12-03T20:23:41.171Z,15.55
2017-12-03T20:26:09.504Z,14.25
2017-12-03T20:28:37.798Z,15.15
2017-12-03T20:31:06.351Z,15.50
2017-12-03T20:33:34.643Z,14.07
2017-12-03T20:36:02.975Z,12.73
2017-12-03T20:38:31.258Z,14.60
2017-12-03T20:41:03.430Z,13.90
2017-12-03T20:43:31.722Z,13.18
2017-12-03T20:46:00.036Z,13.63
2017-12-03T20:48:28.371Z,14.07
2017-12-03T20:50:56.665Z,15.27
2017-12-03T20:53:25.025Z,14.35
2017-12-03T20:55:54.098Z,15.37
2017-12-03T20:58:22.460Z,14.00
2017-12-03T21:00:50.738Z,12.67
2017-12-03T21:03:19.083Z,13.23
2017-12-03T21:05:47.403Z,14.53
2017-12-03T21:08:15.703Z,13.43
2017-12-03T21:10:44.214Z,14.82
2017-12-03T21:13:12.506Z,15.07
2017-12-03T21:15:41.655Z,14.43
2017-12-03T21:18:09.979Z,14.10
2017-12-03T21:20:38.274Z,16.27
2017-12-03T21:23:06.623Z,13.88
2017-12-03T21:25:35.682Z,12.20
2017-12-03T21:28:03.990Z,14.50
2017-12-03T21:30:32.331Z,13.97
2017-12-03T21:33:00.624Z,16.50
2017-12-03T21:35:28.960Z,14.30
2017-12-03T21:37:57.291Z,13.90
2017-12-03T21:40:26.387Z,15.30
2017-12-03T21:42:54.714Z,14.83
2017-12-03T21:45:23.046Z,13.33
2017-12-03T21:47:51.384Z,15.03
2017-12-03T21:50:19.675Z,15.90
2017-12-03T21:52:47.995Z,13.80
2017-12-03T21:55:16.606Z,13.97
2017-12-03T21:57:44.882Z,12.07
2017-12-03T22:00:16.555Z,12.57
2017-12-03T22:02:44.852Z,13.33
2017-12-03T22:05:13.134Z,13.10
2017-12-03T22:07:41.465Z,15.03
2017-12-03T22:10:10.523Z,13.30
2017-12-03T22:12:38.838Z,13.77
2017-12-03T22:15:07.167Z,12.50
2017-12-03T22:17:35.467Z,14.10
2017-12-03T22:20:03.817Z,14.73
2017-12-03T22:22:32.106Z,16.87
2017-12-03T22:25:00.394Z,13.87
2017-12-03T22:27:28.727Z,14.97
2017-12-03T22:29:57.014Z,16.47
2017-12-03T22:32:25.343Z,13.60
2017-12-03T22:34:53.636Z,14.80
2017-12-03T22:37:21.953Z,13.47
2017-12-03T22:39:51.060Z,12.80
2017-12-03T22:42:20.123Z,13.33
2017-12-03T22:44:48.456Z,14.33
2017-12-03T22:47:17.506Z,14.90
2017-12-03T22:49:45.868Z,15.47
2017-12-03T22:52:14.919Z,17.30
2017-12-03T22:54:43.202Z,15.80
2017-12-03T22:57:11.535Z,15.53
2017-12-03T22:59:40.135Z,18.20
2017-12-03T23:02:08.468Z,17.80
2017-12-03T23:04:36.754Z,15.83
2017-12-03T23:07:05.083Z,17.23
2017-12-03T23:09:33.482Z,16.47
2017-12-03T23:12:01.832Z,15.10
2017-12-03T23:14:30.259Z,15.37
2017-12-03T23:16:58.556Z,17.00
2017-12-03T23:19:26.850Z,16.63
2017-12-03T23:21:55.347Z,17.00
2017-12-03T23:24:23.630Z,19.57
2017-12-03T23:26:51.914Z,18.13
2017-12-03T23:29:20.251Z,15.90
2017-12-03T23:31:48.598Z,17.23
2017-12-03T23:34:16.890Z,16.63
2017-12-03T23:36:45.946Z,16.20
2017-12-03T23:39:14.286Z,18.00
2017-12-03T23:41:42.570Z,18.37
2017-12-03T23:44:12.495Z,17.10
2017-12-03T23:46:42.340Z,18.03
2017-12-03T23:49:10.681Z,16.80
2017-12-03T23:51:39.082Z,16.53
2017-12-03T23:54:07.370Z,18.80
2017-12-03T23:56:35.704Z,17.77
2017-12-03T23:59:04.795Z,14.60
